createdAt,value
2022-12-23T00:00:11.403Z,64.82
2022-12-23T00:02:38.620Z,59.38
2022-12-23T00:05:06.451Z,63.72
2022-12-23T00:07:33.125Z,63.85
2022-12-23T00:09:59.764Z,60.17
2022-12-23T00:12:45.019Z,59.80
2022-12-23T00:15:12.626Z,60.90
2022-12-23T00:17:44.952Z,61.15
2022-12-23T00:20:14.635Z,60.10
2022-12-23T00:23:00.406Z,61.67
2022-12-23T00:25:42.207Z,56.88
2022-12-23T00:28:20.814Z,57.42
2022-12-23T00:31:02.485Z,54.17
2022-12-23T00:33:31.883Z,60.55
2022-12-23T00:35:58.633Z,57.95
2022-12-23T00:38:44.118Z,60.35
2022-12-23T00:41:31.447Z,56.80
2022-12-23T00:43:58.642Z,59.17
2022-12-23T00:46:25.436Z,59.70
2022-12-23T00:49:10.653Z,59.35
2022-12-23T00:54:04.210Z,53.90
2022-12-23T00:56:33.749Z,58.28
2022-12-23T00:59:00.701Z,61.65
2022-12-23T01:01:46.188Z,56.70
2022-12-23T01:04:49.640Z,58.47
2022-12-23T01:07:16.284Z,65.30
2022-12-23T01:09:42.932Z,67.53
2022-12-23T01:12:09.502Z,69.50
2022-12-23T01:14:36.534Z,71.40
2022-12-23T01:17:03.563Z,80.28
2022-12-23T01:19:30.238Z,78.43
2022-12-23T01:21:56.791Z,76.45
2022-12-23T01:24:23.557Z,74.78
2022-12-23T01:26:50.113Z,76.10
2022-12-23T01:29:16.658Z,73.57
2022-12-23T01:31:43.267Z,73.30
2022-12-23T01:34:10.523Z,74.57
2022-12-23T01:36:37.540Z,71.97
2022-12-23T01:39:04.327Z,70.70
2022-12-23T01:41:51.773Z,71.28
2022-12-23T01:44:46.012Z,67.05
2022-12-23T01:47:18.906Z,69.70
2022-12-23T01:49:46.459Z,62.63
2022-12-23T01:52:14.302Z,64.18
2022-12-23T01:54:41.586Z,62.00
2022-12-23T01:57:08.212Z,62.55
2022-12-23T01:59:53.533Z,61.65
2022-12-23T02:02:40.073Z,58.38
2022-12-23T02:05:08.309Z,58.55
2022-12-23T02:07:54.481Z,59.85
2022-12-23T02:10:26.795Z,59.67
2022-12-23T02:13:11.472Z,60.55
2022-12-23T02:16:13.913Z,62.03
2022-12-23T02:18:55.447Z,58.15
2022-12-23T02:21:40.704Z,58.25
2022-12-23T02:24:31.357Z,59.95
2022-12-23T02:27:13.131Z,54.70
2022-12-23T02:29:51.544Z,55.03
2022-12-23T02:32:27.350Z,53.15
2022-12-23T02:35:25.400Z,51.90
2022-12-23T02:38:04.042Z,50.67
2022-12-23T02:40:51.583Z,56.33
2022-12-23T02:43:47.526Z,57.95
2022-12-23T02:46:28.237Z,59.10
2022-12-23T02:49:03.359Z,61.03
2022-12-23T02:51:36.632Z,59.55
2022-12-23T02:54:08.735Z,60.63
2022-12-23T02:56:37.452Z,60.20
2022-12-23T02:59:12.232Z,65.28
2022-12-23T03:04:08.912Z,69.35
2022-12-23T03:06:40.598Z,69.43
2022-12-23T03:09:07.497Z,72.72
2022-12-23T03:11:52.920Z,70.35
2022-12-23T03:14:41.363Z,70.93
2022-12-23T03:17:10.876Z,74.25
2022-12-23T03:19:45.270Z,76.35
2022-12-23T03:22:29.843Z,74.00
2022-12-23T03:25:05.825Z,69.40
2022-12-23T03:27:48.515Z,78.35
2022-12-23T03:30:18.656Z,79.70
2022-12-23T03:32:49.819Z,78.22
2022-12-23T03:35:20.248Z,74.55
2022-12-23T03:37:50.918Z,80.65
2022-12-23T03:40:28.173Z,79.90
2022-12-23T03:43:02.190Z,79.10
2022-12-23T03:45:40.309Z,74.63
2022-12-23T03:48:18.991Z,78.53
2022-12-23T03:50:48.665Z,75.97
2022-12-23T03:53:38.097Z,77.28
2022-12-23T03:56:17.119Z,79.65
2022-12-23T03:58:51.272Z,77.35
2022-12-23T04:01:42.557Z,81.45
2022-12-23T04:04:24.200Z,75.28
2022-12-23T04:07:22.811Z,74.15
2022-12-23T04:09:52.568Z,73.35
2022-12-23T04:12:21.410Z,76.75
2022-12-23T04:14:49.286Z,81.13
2022-12-23T04:17:17.348Z,83.32
2022-12-23T04:19:48.154Z,80.05
2022-12-23T04:22:16.046Z,79.65
2022-12-23T04:24:43.500Z,76.30
2022-12-23T04:27:13.086Z,78.20
2022-12-23T04:29:39.753Z,79.38
2022-12-23T04:32:07.605Z,82.82
2022-12-23T04:34:34.357Z,79.68
2022-12-23T04:37:01.135Z,84.20
2022-12-23T04:39:27.900Z,80.05
2022-12-23T04:41:54.689Z,83.65
2022-12-23T04:44:21.305Z,85.72
2022-12-23T04:46:47.926Z,80.35
2022-12-23T04:49:14.525Z,82.53
2022-12-23T04:51:41.064Z,81.53
2022-12-23T04:54:07.678Z,84.47
2022-12-23T04:56:34.204Z,77.68
2022-12-23T04:59:02.372Z,70.72
2022-12-23T05:01:29.765Z,67.43
2022-12-23T05:03:56.461Z,70.60
2022-12-23T05:06:23.091Z,70.00
2022-12-23T05:08:49.712Z,63.45
2022-12-23T05:11:16.242Z,65.40
2022-12-23T05:13:42.913Z,65.68
2022-12-23T05:16:09.573Z,68.82
2022-12-23T05:18:36.144Z,67.03
2022-12-23T05:21:02.770Z,65.05
2022-12-23T05:23:29.363Z,61.97
2022-12-23T05:25:55.995Z,61.85
2022-12-23T05:28:23.492Z,61.92
2022-12-23T05:30:57.000Z,61.15
2022-12-23T05:33:23.603Z,60.70
2022-12-23T05:35:50.272Z,62.92
2022-12-23T05:38:16.810Z,60.55
2022-12-23T05:40:43.340Z,65.32
2022-12-23T05:43:09.932Z,63.42
2022-12-23T05:45:36.757Z,64.20
2022-12-23T05:48:03.404Z,64.90
2022-12-23T05:50:30.060Z,67.90
2022-12-23T05:52:57.718Z,62.35
2022-12-23T05:55:26.235Z,69.78
2022-12-23T05:57:53.088Z,66.30
2022-12-23T06:00:20.552Z,66.22
2022-12-23T06:02:53.296Z,66.78
2022-12-23T06:05:20.570Z,68.10
2022-12-23T06:07:47.124Z,64.63
2022-12-23T06:10:13.700Z,62.17
2022-12-23T06:12:40.284Z,64.32
2022-12-23T06:15:07.703Z,63.97
2022-12-23T06:17:34.312Z,61.95
2022-12-23T06:20:01.050Z,64.53
2022-12-23T06:22:27.655Z,67.22
2022-12-23T06:24:54.245Z,64.70
2022-12-23T06:27:20.878Z,64.32
2022-12-23T06:29:48.092Z,62.50
2022-12-23T06:32:14.962Z,61.25
2022-12-23T06:34:41.669Z,64.53
2022-12-23T06:37:08.400Z,62.05
2022-12-23T06:39:35.440Z,62.88
2022-12-23T06:42:03.270Z,63.50
2022-12-23T06:44:29.910Z,63.63
2022-12-23T06:46:56.486Z,64.97
2022-12-23T06:49:23.025Z,64.72
2022-12-23T06:51:49.616Z,64.70
2022-12-23T06:54:16.169Z,63.03
2022-12-23T06:56:42.948Z,62.63
2022-12-23T06:59:09.491Z,62.42
2022-12-23T07:01:36.163Z,60.47
2022-12-23T07:04:03.159Z,60.25
2022-12-23T07:06:29.846Z,60.00
2022-12-23T07:08:56.419Z,59.55
2022-12-23T07:11:22.980Z,61.20
2022-12-23T07:13:49.684Z,58.30
2022-12-23T07:16:16.291Z,56.90
2022-12-23T07:18:42.982Z,56.65
2022-12-23T07:21:19.718Z,54.33
2022-12-23T07:23:51.325Z,52.65
2022-12-23T07:26:17.913Z,55.20
2022-12-23T07:28:48.752Z,54.58
2022-12-23T07:31:15.771Z,56.00
2022-12-23T07:33:42.560Z,56.22
2022-12-23T07:36:09.548Z,61.78
2022-12-23T07:38:36.372Z,60.33
2022-12-23T07:41:03.183Z,62.00
2022-12-23T07:43:29.840Z,60.00
2022-12-23T07:46:00.470Z,61.20
2022-12-23T07:48:27.512Z,64.05
2022-12-23T07:51:00.634Z,64.05
2022-12-23T07:53:27.279Z,64.90
2022-12-23T07:55:56.822Z,65.43
2022-12-23T07:58:24.202Z,63.75
2022-12-23T08:00:50.777Z,61.25
2022-12-23T08:03:17.827Z,68.25
2022-12-23T08:05:44.537Z,64.65
2022-12-23T08:08:11.152Z,69.45
2022-12-23T08:10:41.433Z,72.32
2022-12-23T08:13:11.183Z,68.93
2022-12-23T08:15:37.767Z,71.28
2022-12-23T08:18:04.437Z,74.00
2022-12-23T08:20:31.011Z,71.88
2022-12-23T08:22:57.556Z,73.78
2022-12-23T08:25:24.133Z,79.30
2022-12-23T08:27:51.392Z,143.55
2022-12-23T08:30:18.913Z,69.05
2022-12-23T08:32:45.499Z,72.05
2022-12-23T08:35:12.103Z,73.10
2022-12-23T08:37:38.754Z,71.30
2022-12-23T08:40:05.962Z,67.30
2022-12-23T08:42:32.552Z,73.50
2022-12-23T08:45:00.057Z,73.88
2022-12-23T08:47:26.644Z,83.97
2022-12-23T08:49:53.246Z,73.35
2022-12-23T08:52:22.147Z,76.57
2022-12-23T08:54:48.719Z,76.25
2022-12-23T08:57:15.293Z,76.22
2022-12-23T08:59:42.097Z,79.80
2022-12-23T09:02:11.790Z,73.15
2022-12-23T09:04:38.477Z,75.80
2022-12-23T09:07:05.983Z,76.88
2022-12-23T09:09:32.595Z,77.97
2022-12-23T09:11:59.168Z,83.97
2022-12-23T09:14:25.751Z,80.78
2022-12-23T09:16:52.621Z,82.28
2022-12-23T09:19:20.495Z,80.82
2022-12-23T09:21:48.199Z,78.50
2022-12-23T09:24:14.828Z,76.95
2022-12-23T09:26:41.437Z,79.00
2022-12-23T09:29:08.013Z,79.90
2022-12-23T09:31:37.731Z,76.07
2022-12-23T09:34:05.500Z,76.70
2022-12-23T09:36:32.198Z,76.75
2022-12-23T09:38:59.280Z,79.18
2022-12-23T09:41:48.421Z,76.75
2022-12-23T09:44:41.762Z,75.72
2022-12-23T09:47:15.705Z,73.90
2022-12-23T09:50:00.601Z,78.63
2022-12-23T09:52:45.928Z,77.43
2022-12-23T09:55:15.304Z,77.20
2022-12-23T09:58:09.075Z,71.25
2022-12-23T10:00:42.800Z,71.20
2022-12-23T10:03:15.440Z,74.68
2022-12-23T10:05:57.178Z,72.57
2022-12-23T10:08:44.563Z,73.43
2022-12-23T10:11:21.208Z,72.75
2022-12-23T10:13:52.410Z,75.32
2022-12-23T10:16:25.787Z,74.20
2022-12-23T10:19:01.624Z,70.78
2022-12-23T10:21:52.466Z,76.72
2022-12-23T10:24:24.240Z,75.18
2022-12-23T10:26:58.093Z,76.47
2022-12-23T10:29:27.029Z,77.73
2022-12-23T10:32:17.585Z,73.90
2022-12-23T10:35:13.519Z,74.90
2022-12-23T10:38:17.572Z,76.90
2022-12-23T10:40:45.437Z,74.50
2022-12-23T10:43:18.035Z,78.28
2022-12-23T10:46:10.430Z,78.60
2022-12-23T10:48:36.953Z,77.07
2022-12-23T10:51:12.912Z,79.55
2022-12-23T10:53:47.631Z,79.40
2022-12-23T10:56:15.104Z,81.40
2022-12-23T10:58:44.876Z,80.75
2022-12-23T11:01:25.726Z,77.95
2022-12-23T11:04:32.496Z,79.72
2022-12-23T11:07:26.467Z,77.82
2022-12-23T11:10:08.086Z,78.28
2022-12-23T11:12:47.453Z,78.72
2022-12-23T11:15:37.818Z,78.70
2022-12-23T11:18:18.403Z,77.78
2022-12-23T11:21:01.282Z,71.20
2022-12-23T11:23:36.884Z,87.18
2022-12-23T11:26:10.050Z,75.00
2022-12-23T11:28:40.092Z,77.72
2022-12-23T11:31:12.284Z,78.10
2022-12-23T11:33:46.479Z,97.75
2022-12-23T11:36:12.988Z,75.63
2022-12-23T11:39:17.858Z,78.22
2022-12-23T11:41:50.333Z,77.43
2022-12-23T11:44:26.034Z,75.38
2022-12-23T11:46:52.790Z,74.93
2022-12-23T11:49:29.211Z,77.07
2022-12-23T11:52:12.046Z,78.35
2022-12-23T11:54:39.183Z,80.43
2022-12-23T11:57:19.004Z,80.22
2022-12-23T11:59:52.828Z,78.25
2022-12-23T12:02:40.744Z,77.63
2022-12-23T12:05:22.680Z,80.63
2022-12-23T12:07:51.301Z,78.82
2022-12-23T12:10:28.170Z,81.35
2022-12-23T12:13:26.673Z,80.68
2022-12-23T12:16:07.798Z,83.07
2022-12-23T12:18:35.309Z,163.52
2022-12-23T12:21:07.387Z,81.05
2022-12-23T12:23:39.688Z,84.63
2022-12-23T12:26:13.733Z,82.10
2022-12-23T12:28:43.463Z,82.53
2022-12-23T12:31:17.917Z,84.93
2022-12-23T12:33:54.102Z,82.75
2022-12-23T12:36:39.288Z,83.13
2022-12-23T12:39:17.297Z,82.30
2022-12-23T12:42:01.784Z,82.97
2022-12-23T12:44:46.228Z,84.53
2022-12-23T12:47:52.120Z,84.38
2022-12-23T12:50:19.329Z,83.47
2022-12-23T12:52:45.965Z,87.18
2022-12-23T12:55:28.700Z,84.43
2022-12-23T12:57:55.530Z,81.13
2022-12-23T13:00:24.303Z,81.80
2022-12-23T13:03:15.441Z,77.95
2022-12-23T13:06:15.216Z,86.18
2022-12-23T13:09:00.306Z,75.55
2022-12-23T13:14:34.683Z,84.28
2022-12-23T13:17:20.879Z,91.03
2022-12-23T13:20:25.250Z,86.28
2022-12-23T13:23:06.355Z,84.60
2022-12-23T13:25:49.902Z,86.18
2022-12-23T13:28:41.899Z,85.50
2022-12-23T13:31:35.615Z,86.03
2022-12-23T13:34:21.477Z,90.35
2022-12-23T13:36:57.192Z,90.07
2022-12-23T13:39:29.760Z,90.82
2022-12-23T13:42:05.087Z,90.65
2022-12-23T13:44:35.096Z,89.15
2022-12-23T13:47:23.281Z,87.55
2022-12-23T13:50:08.312Z,88.32
2022-12-23T13:56:08.179Z,90.35
2022-12-23T13:58:35.512Z,92.00
2022-12-23T14:01:31.863Z,94.82
2022-12-23T14:04:56.438Z,93.07
2022-12-23T14:07:23.753Z,92.65
2022-12-23T14:09:59.443Z,96.63
2022-12-23T14:12:34.401Z,99.03
2022-12-23T14:15:31.949Z,99.43
2022-12-23T14:18:09.820Z,97.75
2022-12-23T14:20:45.306Z,96.47
2022-12-23T14:23:33.423Z,96.40
2022-12-23T14:26:06.071Z,95.28
2022-12-23T14:29:02.980Z,91.70
2022-12-23T14:31:31.346Z,90.97
2022-12-23T14:34:31.289Z,88.65
2022-12-23T14:37:15.890Z,87.50
2022-12-23T14:39:43.439Z,86.50
2022-12-23T14:42:14.966Z,83.13
2022-12-23T14:44:46.374Z,85.10
2022-12-23T14:47:36.082Z,88.90
2022-12-23T14:50:37.017Z,89.00
2022-12-23T14:53:29.509Z,90.85
2022-12-23T14:56:08.162Z,93.18
2022-12-23T14:58:45.424Z,90.93
2022-12-23T15:01:23.946Z,92.18
2022-12-23T15:03:57.568Z,92.45
2022-12-23T15:06:43.259Z,90.00
2022-12-23T15:09:20.336Z,92.90
2022-12-23T15:11:47.260Z,93.68
2022-12-23T15:14:23.425Z,91.55
2022-12-23T15:16:50.048Z,91.40
2022-12-23T15:19:23.545Z,92.07
2022-12-23T15:21:59.613Z,87.47
2022-12-23T15:24:29.860Z,86.07
2022-12-23T15:27:26.093Z,86.75
2022-12-23T15:29:49.500Z,83.13
2022-12-23T15:32:19.233Z,84.70
2022-12-23T15:34:48.246Z,86.20
2022-12-23T15:37:24.731Z,89.25
2022-12-23T15:39:57.225Z,87.53
2022-12-23T15:42:38.526Z,89.25
2022-12-23T15:45:26.047Z,89.65
2022-12-23T15:47:52.754Z,87.22
2022-12-23T15:50:19.733Z,89.47
2022-12-23T15:52:48.895Z,90.95
2022-12-23T15:55:27.806Z,87.28
2022-12-23T15:57:54.915Z,87.10
2022-12-23T16:00:50.948Z,89.05
2022-12-23T16:03:25.506Z,87.47
2022-12-23T16:05:52.745Z,84.82
2022-12-23T16:08:30.114Z,89.93
2022-12-23T16:11:17.847Z,80.43
2022-12-23T16:13:58.319Z,85.13
2022-12-23T16:16:41.305Z,83.82
2022-12-23T16:19:37.577Z,89.22
2022-12-23T16:22:28.493Z,86.43
2022-12-23T16:25:10.096Z,89.55
2022-12-23T16:27:40.154Z,89.78
2022-12-23T16:30:34.331Z,86.93
2022-12-23T16:33:06.974Z,87.20
2022-12-23T16:35:42.872Z,87.25
2022-12-23T16:38:22.996Z,85.80
2022-12-23T16:40:51.956Z,87.18
2022-12-23T16:43:19.412Z,86.60
2022-12-23T16:45:50.063Z,84.85
2022-12-23T16:48:24.418Z,84.40
2022-12-23T16:50:52.492Z,80.85
2022-12-23T16:53:19.493Z,85.00
2022-12-23T16:55:52.352Z,83.10
2022-12-23T16:58:23.471Z,82.68
2022-12-23T17:00:51.624Z,82.88
2022-12-23T17:03:19.360Z,83.05
2022-12-23T17:05:47.163Z,83.82
2022-12-23T17:08:13.875Z,80.93
2022-12-23T17:10:42.200Z,80.85
2022-12-23T17:13:11.913Z,78.82
2022-12-23T17:15:38.769Z,76.90
2022-12-23T17:18:12.629Z,74.68
2022-12-23T17:20:39.373Z,72.37
2022-12-23T17:23:06.727Z,73.60
2022-12-23T17:25:33.320Z,76.55
2022-12-23T17:27:59.887Z,77.93
2022-12-23T17:30:26.500Z,75.35
2022-12-23T17:32:58.293Z,74.72
2022-12-23T17:35:26.839Z,75.10
2022-12-23T17:37:53.702Z,79.57
2022-12-23T17:40:20.510Z,77.30
2022-12-23T17:42:47.774Z,76.38
2022-12-23T17:45:27.701Z,77.47
2022-12-23T17:47:54.724Z,80.40
2022-12-23T17:50:22.266Z,85.25
2022-12-23T17:52:49.349Z,83.88
2022-12-23T17:55:19.572Z,83.57
2022-12-23T17:57:48.053Z,82.80
2022-12-23T18:00:25.175Z,83.00
2022-12-23T18:02:56.337Z,79.60
2022-12-23T18:05:31.387Z,83.90
2022-12-23T18:08:00.683Z,81.53
2022-12-23T18:10:30.767Z,82.32
2022-12-23T18:13:04.892Z,82.88
2022-12-23T18:15:40.698Z,80.10
2022-12-23T18:18:20.456Z,83.80
2022-12-23T18:20:52.851Z,81.43
2022-12-23T18:23:25.006Z,85.15
2022-12-23T18:25:51.665Z,83.20
2022-12-23T18:28:18.245Z,81.65
2022-12-23T18:30:45.038Z,83.30
2022-12-23T18:33:13.274Z,80.22
2022-12-23T18:35:44.055Z,77.90
2022-12-23T18:38:11.912Z,78.97
2022-12-23T18:40:40.094Z,81.15
2022-12-23T18:43:07.127Z,80.88
2022-12-23T18:45:46.556Z,82.72
2022-12-23T18:48:15.799Z,81.00
2022-12-23T18:50:44.396Z,80.63
2022-12-23T18:53:23.328Z,79.18
2022-12-23T18:55:51.888Z,79.68
2022-12-23T18:58:19.085Z,78.97
2022-12-23T19:00:47.026Z,81.93
2022-12-23T19:03:30.247Z,80.88
2022-12-23T19:06:01.773Z,80.78
2022-12-23T19:08:28.349Z,87.43
2022-12-23T19:10:55.736Z,80.75
2022-12-23T19:13:22.586Z,80.28
2022-12-23T19:15:49.470Z,81.57
2022-12-23T19:18:18.588Z,84.47
2022-12-23T19:20:46.299Z,84.97
2022-12-23T19:23:13.908Z,83.57
2022-12-23T19:25:42.474Z,84.72
2022-12-23T19:28:09.703Z,85.72
2022-12-23T19:30:36.601Z,83.03
2022-12-23T19:33:03.255Z,84.93
2022-12-23T19:35:29.881Z,83.13
2022-12-23T19:37:58.783Z,84.43
2022-12-23T19:40:25.421Z,86.15
2022-12-23T19:42:51.957Z,84.45
2022-12-23T19:45:18.581Z,83.03
2022-12-23T19:47:45.144Z,86.43
2022-12-23T19:50:12.458Z,84.18
2022-12-23T19:52:39.070Z,84.63
2022-12-23T19:55:06.066Z,80.00
2022-12-23T19:57:33.423Z,81.35
2022-12-23T20:00:01.830Z,81.43
2022-12-23T20:02:28.753Z,81.07
2022-12-23T20:04:55.342Z,83.25
2022-12-23T20:07:21.960Z,80.07
2022-12-23T20:09:48.548Z,78.90
2022-12-23T20:12:15.233Z,84.03
2022-12-23T20:14:41.814Z,81.30
2022-12-23T20:17:08.375Z,80.25
2022-12-23T20:19:39.142Z,79.90
2022-12-23T20:22:10.378Z,82.00
2022-12-23T20:24:37.177Z,80.75
2022-12-23T20:27:07.941Z,78.80
2022-12-23T20:29:38.170Z,80.00
2022-12-23T20:32:04.951Z,82.13
2022-12-23T20:34:36.668Z,80.97
2022-12-23T20:37:06.475Z,80.07
2022-12-23T20:39:33.278Z,81.72
2022-12-23T20:41:59.869Z,82.53
2022-12-23T20:44:35.805Z,81.43
2022-12-23T20:47:05.567Z,82.05
2022-12-23T20:49:33.842Z,81.25
2022-12-23T20:52:00.664Z,82.90
2022-12-23T20:54:32.538Z,82.47
2022-12-23T20:56:59.583Z,82.82
2022-12-23T20:59:26.165Z,85.10
2022-12-23T21:01:52.870Z,83.90
2022-12-23T21:04:20.511Z,80.15
2022-12-23T21:06:47.166Z,81.43
2022-12-23T21:09:15.574Z,81.32
2022-12-23T21:11:45.230Z,79.97
2022-12-23T21:14:13.170Z,79.28
2022-12-23T21:16:40.408Z,84.03
2022-12-23T21:19:09.390Z,83.38
2022-12-23T21:21:35.974Z,82.22
2022-12-23T21:24:04.773Z,82.05
2022-12-23T21:26:33.774Z,82.60
2022-12-23T21:29:02.010Z,84.25
2022-12-23T21:31:30.417Z,83.72
2022-12-23T21:33:58.671Z,84.45
2022-12-23T21:36:27.780Z,84.53
2022-12-23T21:38:54.795Z,88.10
2022-12-23T21:41:28.496Z,84.72
2022-12-23T21:43:59.748Z,81.05
2022-12-23T21:46:27.702Z,82.55
2022-12-23T21:48:55.776Z,84.85
2022-12-23T21:51:41.897Z,85.95
2022-12-23T21:54:10.857Z,86.18
2022-12-23T21:56:37.962Z,83.70
2022-12-23T21:59:08.402Z,84.53
2022-12-23T22:01:35.266Z,82.43
2022-12-23T22:04:02.349Z,85.22
2022-12-23T22:06:36.551Z,84.93
2022-12-23T22:09:05.132Z,79.90
2022-12-23T22:11:33.674Z,82.07
2022-12-23T22:14:02.238Z,84.00
2022-12-23T22:16:30.793Z,85.13
2022-12-23T22:18:59.293Z,81.88
2022-12-23T22:21:27.699Z,83.32
2022-12-23T22:23:55.396Z,84.55
2022-12-23T22:26:27.404Z,83.30
2022-12-23T22:28:59.350Z,81.60
2022-12-23T22:31:36.709Z,83.97
2022-12-23T22:34:04.645Z,85.68
2022-12-23T22:36:31.491Z,82.95
2022-12-23T22:38:59.845Z,81.72
2022-12-23T22:41:30.497Z,84.65
2022-12-23T22:43:58.165Z,85.75
2022-12-23T22:46:26.046Z,87.10
2022-12-23T22:48:53.451Z,83.10
2022-12-23T22:51:23.247Z,84.13
2022-12-23T22:53:50.007Z,86.05
2022-12-23T22:56:17.994Z,84.20
2022-12-23T22:58:44.620Z,85.78
2022-12-23T23:01:32.273Z,86.53
2022-12-23T23:04:01.107Z,85.35
2022-12-23T23:06:39.399Z,87.85
2022-12-23T23:09:08.217Z,85.00
2022-12-23T23:11:35.099Z,86.80
2022-12-23T23:14:01.872Z,88.18
2022-12-23T23:16:28.562Z,89.40
2022-12-23T23:18:55.312Z,87.40
2022-12-23T23:21:22.387Z,88.70
2022-12-23T23:23:49.845Z,89.28
2022-12-23T23:26:17.420Z,87.18
2022-12-23T23:28:44.501Z,86.90
2022-12-23T23:33:58.804Z,84.20
2022-12-23T23:36:25.487Z,86.85
2022-12-23T23:38:52.241Z,86.95
2022-12-23T23:41:22.901Z,88.97
2022-12-23T23:43:50.597Z,85.72
2022-12-23T23:46:17.285Z,85.55
2022-12-23T23:48:43.904Z,85.72
2022-12-23T23:51:10.680Z,85.35
2022-12-23T23:53:37.252Z,86.65
2022-12-23T23:56:06.474Z,86.82
2022-12-23T23:58:34.732Z,84.78
